createdAt,value
2023-02-14T00:01:25.405Z,17.77
2023-02-14T00:03:53.416Z,19.73
2023-02-14T00:06:21.840Z,18.90
2023-02-14T00:08:52.415Z,17.00
2023-02-14T00:11:21.029Z,18.63
2023-02-14T00:14:07.638Z,18.63
2023-02-14T00:16:36.339Z,17.17
2023-02-14T00:19:04.119Z,17.43
2023-02-14T00:21:36.221Z,15.77
2023-02-14T00:24:08.271Z,16.47
2023-02-14T00:26:38.922Z,18.27
2023-02-14T00:29:09.132Z,17.40
2023-02-14T00:31:37.710Z,18.27
2023-02-14T00:34:06.272Z,17.23
2023-02-14T00:36:34.644Z,17.13
2023-02-14T00:39:06.284Z,15.53
2023-02-14T00:41:34.702Z,16.23
2023-02-14T00:44:02.796Z,14.33
2023-02-14T00:46:31.227Z,13.87
2023-02-14T00:48:59.211Z,14.80
2023-02-14T00:51:27.767Z,14.17
2023-02-14T00:53:55.603Z,14.00
2023-02-14T00:56:23.764Z,15.40
2023-02-14T00:58:51.628Z,14.80
2023-02-14T01:01:20.080Z,14.33
2023-02-14T01:03:48.232Z,14.37
2023-02-14T01:06:16.669Z,16.77
2023-02-14T01:08:44.428Z,14.37
2023-02-14T01:11:14.082Z,15.07
2023-02-14T01:13:42.250Z,15.43
2023-02-14T01:16:13.399Z,15.90
2023-02-14T01:18:42.046Z,14.47
2023-02-14T01:21:21.318Z,14.70
2023-02-14T01:23:51.918Z,14.57
2023-02-14T01:26:21.159Z,15.80
2023-02-14T01:28:49.143Z,16.67
2023-02-14T01:31:19.191Z,17.43
2023-02-14T01:33:48.459Z,14.20
2023-02-14T01:36:18.404Z,15.93
2023-02-14T01:38:46.468Z,14.80
2023-02-14T01:41:15.255Z,15.60
2023-02-14T01:44:09.065Z,14.80
2023-02-14T01:46:38.718Z,16.37
2023-02-14T01:49:10.311Z,16.50
2023-02-14T01:51:40.915Z,16.77
2023-02-14T01:54:09.565Z,16.23
2023-02-14T01:56:44.314Z,17.23
2023-02-14T01:59:15.223Z,17.20
2023-02-14T02:01:45.165Z,17.80
2023-02-14T02:04:22.320Z,15.53
2023-02-14T02:06:56.191Z,15.57
2023-02-14T02:09:39.621Z,15.87
2023-02-14T02:12:07.810Z,16.07
2023-02-14T02:14:37.731Z,16.17
2023-02-14T02:17:30.047Z,17.83
2023-02-14T02:20:00.630Z,18.07
2023-02-14T02:23:06.250Z,18.10
2023-02-14T02:25:49.257Z,17.13
2023-02-14T02:28:17.406Z,18.50
2023-02-14T02:30:54.483Z,16.87
2023-02-14T02:33:36.064Z,17.13
2023-02-14T02:36:03.895Z,18.63
2023-02-14T02:38:40.171Z,16.63
2023-02-14T02:41:07.986Z,16.10
2023-02-14T02:44:03.739Z,16.67
2023-02-14T02:46:50.241Z,17.13
2023-02-14T02:49:41.173Z,15.97
2023-02-14T02:52:51.405Z,16.90
2023-02-14T02:56:02.636Z,15.13
2023-02-14T02:58:48.456Z,17.57
2023-02-14T03:01:22.046Z,16.80
2023-02-14T03:04:14.359Z,16.00
2023-02-14T03:06:42.357Z,21.20
2023-02-14T03:09:33.571Z,19.40
2023-02-14T03:12:35.319Z,17.57
2023-02-14T03:15:03.410Z,18.70
2023-02-14T03:17:43.289Z,16.67
2023-02-14T03:20:14.264Z,19.20
2023-02-14T03:23:04.382Z,17.60
2023-02-14T03:25:48.220Z,16.70
2023-02-14T03:28:41.870Z,21.33
2023-02-14T03:31:15.819Z,21.17
2023-02-14T03:34:04.244Z,16.67
2023-02-14T03:36:42.123Z,21.27
2023-02-14T03:39:20.326Z,18.40
2023-02-14T03:41:54.054Z,16.30
2023-02-14T03:44:26.182Z,15.47
2023-02-14T03:46:58.691Z,16.07
2023-02-14T03:49:32.326Z,16.33
2023-02-14T03:52:02.376Z,19.03
2023-02-14T03:54:33.380Z,17.50
2023-02-14T03:57:24.597Z,16.13
2023-02-14T03:59:53.057Z,17.53
2023-02-14T04:02:35.430Z,16.97
2023-02-14T04:05:09.706Z,17.70
2023-02-14T04:07:46.430Z,19.20
2023-02-14T04:10:15.225Z,20.37
2023-02-14T04:12:43.498Z,21.00
2023-02-14T04:15:11.777Z,22.13
2023-02-14T04:17:58.680Z,25.87
2023-02-14T04:20:27.976Z,28.43
2023-02-14T04:22:56.260Z,26.90
2023-02-14T04:25:24.612Z,29.63
2023-02-14T04:27:52.377Z,26.70
2023-02-14T04:30:21.865Z,26.37
2023-02-14T04:32:50.105Z,25.37
2023-02-14T04:35:18.469Z,27.07
2023-02-14T04:37:46.334Z,51.13
2023-02-14T04:40:17.440Z,35.70
2023-02-14T04:42:46.552Z,35.47
2023-02-14T04:45:14.919Z,24.50
2023-02-14T04:47:42.680Z,22.77
2023-02-14T04:50:10.896Z,25.07
2023-02-14T04:52:38.687Z,30.60
2023-02-14T04:55:06.881Z,28.13
2023-02-14T04:57:34.776Z,39.83
2023-02-14T05:00:03.062Z,23.97
2023-02-14T05:02:31.934Z,19.20
2023-02-14T05:05:00.015Z,18.73
2023-02-14T05:07:27.784Z,20.10
2023-02-14T05:09:55.797Z,18.83
2023-02-14T05:12:23.714Z,19.00
2023-02-14T05:14:51.780Z,18.97
2023-02-14T05:17:19.420Z,23.23
2023-02-14T05:19:47.512Z,19.63
2023-02-14T05:22:18.124Z,25.10
2023-02-14T05:24:46.601Z,27.83
2023-02-14T05:27:14.357Z,20.33
2023-02-14T05:29:42.536Z,21.80
2023-02-14T05:32:10.476Z,31.20
2023-02-14T05:34:38.630Z,42.73
2023-02-14T05:37:06.341Z,39.33
2023-02-14T05:39:34.454Z,26.20
2023-02-14T05:42:03.361Z,33.90
2023-02-14T05:44:31.594Z,57.07
2023-02-14T05:47:02.374Z,43.73
2023-02-14T05:49:30.396Z,39.67
2023-02-14T05:51:58.156Z,32.30
2023-02-14T05:54:26.748Z,28.40
2023-02-14T05:56:55.230Z,26.73
2023-02-14T05:59:23.309Z,24.77
2023-02-14T06:01:51.282Z,22.17
2023-02-14T06:04:19.761Z,20.97
2023-02-14T06:06:47.751Z,19.47
2023-02-14T06:09:15.766Z,20.87
2023-02-14T06:11:43.574Z,19.93
2023-02-14T06:14:11.800Z,20.43
2023-02-14T06:16:39.994Z,21.37
2023-02-14T06:19:08.163Z,21.43
2023-02-14T06:21:36.186Z,20.40
2023-02-14T06:24:04.500Z,25.43
2023-02-14T06:26:33.558Z,29.27
2023-02-14T06:29:01.683Z,34.83
2023-02-14T06:31:29.726Z,36.87
2023-02-14T06:33:57.859Z,39.07
2023-02-14T06:36:26.394Z,33.03
2023-02-14T06:38:54.578Z,42.27
2023-02-14T06:41:22.382Z,35.60
2023-02-14T06:43:50.510Z,37.83
2023-02-14T06:46:18.725Z,35.40
2023-02-14T06:48:46.918Z,34.20
2023-02-14T06:51:14.902Z,27.87
2023-02-14T06:53:43.093Z,32.23
2023-02-14T06:56:11.078Z,31.93
2023-02-14T06:58:39.181Z,29.40
2023-02-14T07:01:07.139Z,29.63
2023-02-14T07:03:35.039Z,55.47
2023-02-14T07:06:02.685Z,56.50
2023-02-14T07:08:30.664Z,44.53
2023-02-14T07:10:59.238Z,24.77
2023-02-14T07:13:27.182Z,23.97
2023-02-14T07:15:54.576Z,24.17
2023-02-14T07:18:22.540Z,29.10
2023-02-14T07:20:50.605Z,28.53
2023-02-14T07:23:18.506Z,30.17
2023-02-14T07:25:46.128Z,34.07
2023-02-14T07:28:14.076Z,39.93
2023-02-14T07:30:41.649Z,25.73
2023-02-14T07:33:09.635Z,32.27
2023-02-14T07:35:37.267Z,25.40
2023-02-14T07:38:05.098Z,25.73
2023-02-14T07:40:32.797Z,21.37
2023-02-14T07:43:01.041Z,19.73
2023-02-14T07:45:28.703Z,20.23
2023-02-14T07:47:59.126Z,18.37
2023-02-14T07:50:26.770Z,20.93
2023-02-14T07:52:54.730Z,19.67
2023-02-14T07:55:25.139Z,19.43
2023-02-14T07:57:53.023Z,17.00
2023-02-14T08:00:21.094Z,16.67
2023-02-14T08:02:49.567Z,15.27
2023-02-14T08:05:17.456Z,16.87
2023-02-14T08:07:48.295Z,19.47
2023-02-14T08:10:15.973Z,16.23
2023-02-14T08:12:59.201Z,16.67
2023-02-14T08:15:51.094Z,27.27
2023-02-14T08:18:20.431Z,35.50
2023-02-14T08:20:51.485Z,26.27
2023-02-14T08:23:20.616Z,31.17
2023-02-14T08:25:52.629Z,21.90
2023-02-14T08:28:23.499Z,19.10
2023-02-14T08:30:51.226Z,21.10
2023-02-14T08:33:19.905Z,18.73
2023-02-14T08:35:47.823Z,21.83
2023-02-14T08:38:15.770Z,17.43
2023-02-14T08:40:43.645Z,17.27
2023-02-14T08:43:11.940Z,19.77
2023-02-14T08:45:40.106Z,20.67
2023-02-14T08:48:12.775Z,15.47
2023-02-14T08:50:40.716Z,16.23
2023-02-14T08:53:10.432Z,20.30
2023-02-14T08:55:38.581Z,17.10
2023-02-14T08:58:07.047Z,18.27
2023-02-14T09:00:34.541Z,16.80
2023-02-14T09:03:02.674Z,15.97
2023-02-14T09:05:30.589Z,12.47
2023-02-14T09:07:58.669Z,14.47
2023-02-14T09:10:26.732Z,13.40
2023-02-14T09:12:54.845Z,12.30
2023-02-14T09:15:22.559Z,12.13
2023-02-14T09:17:51.199Z,15.80
2023-02-14T09:20:18.629Z,16.13
2023-02-14T09:22:48.730Z,18.47
2023-02-14T09:25:16.704Z,21.57
2023-02-14T09:27:44.193Z,19.10
2023-02-14T09:30:12.437Z,22.87
2023-02-14T09:32:40.052Z,19.07
2023-02-14T09:35:07.762Z,19.17
2023-02-14T09:37:54.134Z,14.17
2023-02-14T09:40:22.054Z,15.30
2023-02-14T09:42:59.073Z,16.37
2023-02-14T09:45:30.312Z,15.27
2023-02-14T09:48:00.523Z,23.70
2023-02-14T09:50:49.484Z,23.20
2023-02-14T09:53:30.264Z,21.00
2023-02-14T09:56:02.670Z,18.03
2023-02-14T09:59:07.087Z,17.37
2023-02-14T10:01:34.624Z,26.43
2023-02-14T10:04:42.541Z,15.73
2023-02-14T10:07:32.207Z,29.90
2023-02-14T10:10:09.091Z,17.97
2023-02-14T10:12:56.987Z,15.20
2023-02-14T10:15:28.321Z,21.43
2023-02-14T10:17:57.214Z,19.13
2023-02-14T10:20:35.686Z,19.90
2023-02-14T10:23:37.954Z,17.97
2023-02-14T10:26:13.035Z,15.30
2023-02-14T10:28:52.253Z,18.33
2023-02-14T10:31:45.131Z,14.53
2023-02-14T10:34:17.427Z,11.27
2023-02-14T10:36:48.111Z,11.07
2023-02-14T10:39:43.563Z,12.43
2023-02-14T10:42:32.250Z,11.50
2023-02-14T10:45:02.494Z,15.43
2023-02-14T10:47:35.964Z,12.63
2023-02-14T10:50:33.583Z,16.20
2023-02-14T10:53:31.503Z,14.27
2023-02-14T10:56:07.802Z,12.30
2023-02-14T10:58:39.980Z,15.53
2023-02-14T11:01:13.635Z,15.90
2023-02-14T11:04:06.688Z,13.50
2023-02-14T11:06:34.534Z,12.53
2023-02-14T11:09:03.240Z,10.27
2023-02-14T11:11:40.922Z,13.13
2023-02-14T11:14:32.639Z,13.27
2023-02-14T11:17:00.851Z,15.10
2023-02-14T11:19:31.489Z,19.90
2023-02-14T11:22:00.176Z,19.10
2023-02-14T11:24:27.920Z,25.40
2023-02-14T11:27:18.684Z,19.97
2023-02-14T11:29:53.155Z,22.30
2023-02-14T11:32:25.215Z,12.97
2023-02-14T11:35:17.866Z,16.00
2023-02-14T11:37:58.460Z,10.80
2023-02-14T11:40:38.978Z,11.17
2023-02-14T11:43:14.776Z,16.53
2023-02-14T11:45:46.296Z,15.53
2023-02-14T11:48:36.561Z,11.37
2023-02-14T11:51:10.509Z,12.17
2023-02-14T11:53:48.697Z,18.17
2023-02-14T11:56:19.337Z,16.03
2023-02-14T11:59:03.913Z,10.50
2023-02-14T12:01:40.614Z,11.57
2023-02-14T12:04:19.757Z,12.37
2023-02-14T12:06:47.972Z,14.30
2023-02-14T12:09:24.501Z,13.33
2023-02-14T12:12:16.440Z,14.13
2023-02-14T12:14:44.496Z,14.13
2023-02-14T12:17:25.593Z,13.27
2023-02-14T12:20:04.672Z,13.30
2023-02-14T12:23:01.429Z,13.33
2023-02-14T12:25:45.915Z,16.63
2023-02-14T12:28:20.305Z,15.27
2023-02-14T12:30:49.844Z,13.20
2023-02-14T12:33:25.276Z,17.40
2023-02-14T12:35:55.719Z,14.73
2023-02-14T12:38:44.559Z,17.13
2023-02-14T12:41:30.783Z,14.43
2023-02-14T12:44:05.258Z,11.90
2023-02-14T12:47:02.756Z,13.77
2023-02-14T12:50:11.160Z,12.23
2023-02-14T12:52:48.760Z,12.07
2023-02-14T12:55:49.362Z,13.03
2023-02-14T12:58:29.052Z,23.60
2023-02-14T13:01:04.334Z,15.77
2023-02-14T13:03:39.782Z,14.90
2023-02-14T13:06:33.888Z,11.90
2023-02-14T13:09:27.670Z,11.67
2023-02-14T13:12:23.136Z,12.27
2023-02-14T13:15:31.870Z,13.17
2023-02-14T13:18:24.538Z,18.20
2023-02-14T13:21:00.445Z,30.40
2023-02-14T13:23:46.519Z,23.67
2023-02-14T13:26:27.462Z,13.67
2023-02-14T13:29:11.174Z,13.83
2023-02-14T13:31:47.295Z,19.17
2023-02-14T13:34:39.642Z,15.40
2023-02-14T13:37:11.645Z,15.70
2023-02-14T13:39:57.956Z,21.83
2023-02-14T13:42:48.230Z,27.97
2023-02-14T13:45:40.922Z,13.53
2023-02-14T13:48:22.095Z,8.17
2023-02-14T13:51:12.766Z,9.77
2023-02-14T13:53:50.020Z,14.70
2023-02-14T13:56:19.496Z,23.43
2023-02-14T13:58:55.403Z,16.27
2023-02-14T14:01:49.277Z,15.27
2023-02-14T14:04:31.530Z,25.07
2023-02-14T14:07:04.216Z,12.90
2023-02-14T14:09:47.949Z,12.93
2023-02-14T14:12:30.707Z,16.35
2023-02-14T14:15:19.075Z,11.35
2023-02-14T14:17:51.030Z,6.40
2023-02-14T14:20:21.917Z,5.75
2023-02-14T14:23:02.231Z,4.68
2023-02-14T14:25:50.552Z,9.00
2023-02-14T14:28:23.026Z,9.75
2023-02-14T14:30:54.638Z,9.60
2023-02-14T14:33:36.014Z,9.07
2023-02-14T14:36:08.345Z,7.10
2023-02-14T14:38:52.875Z,9.40
2023-02-14T14:41:35.321Z,7.80
2023-02-14T14:44:07.024Z,12.27
2023-02-14T14:46:34.583Z,11.15
2023-02-14T14:49:05.918Z,11.02
2023-02-14T14:51:38.982Z,10.30
2023-02-14T14:54:20.458Z,8.30
2023-02-14T14:56:52.661Z,7.47
2023-02-14T14:59:31.345Z,6.97
2023-02-14T15:01:59.066Z,8.23
2023-02-14T15:04:32.990Z,8.50
2023-02-14T15:07:21.180Z,8.73
2023-02-14T15:09:48.791Z,9.17
2023-02-14T15:12:40.887Z,10.77
2023-02-14T15:15:12.716Z,9.03
2023-02-14T15:17:42.489Z,9.67
2023-02-14T15:20:30.675Z,12.13
2023-02-14T15:22:58.472Z,10.93
2023-02-14T15:25:30.853Z,11.53
2023-02-14T15:27:58.512Z,11.10
2023-02-14T15:30:34.458Z,10.17
2023-02-14T15:33:05.909Z,10.63
2023-02-14T15:35:39.231Z,10.17
2023-02-14T15:38:12.077Z,11.43
2023-02-14T15:40:40.565Z,9.83
2023-02-14T15:43:31.191Z,10.07
2023-02-14T15:46:39.399Z,9.80
2023-02-14T15:49:15.818Z,9.07
2023-02-14T15:51:44.464Z,9.80
2023-02-14T15:54:35.540Z,9.70
2023-02-14T15:57:05.536Z,9.13
2023-02-14T15:59:41.602Z,10.60
2023-02-14T16:02:38.203Z,10.60
2023-02-14T16:05:24.336Z,10.33
2023-02-14T16:08:03.814Z,10.40
2023-02-14T16:10:38.615Z,10.40
2023-02-14T16:13:20.686Z,10.87
2023-02-14T16:16:07.799Z,9.87
2023-02-14T16:18:41.911Z,12.10
2023-02-14T16:21:25.498Z,10.20
2023-02-14T16:24:10.937Z,10.97
2023-02-14T16:26:41.071Z,12.43
2023-02-14T16:29:11.278Z,11.23
2023-02-14T16:34:39.799Z,10.97
2023-02-14T16:37:17.165Z,11.43
2023-02-14T16:39:45.069Z,11.27
2023-02-14T16:42:17.410Z,10.83
2023-02-14T16:44:46.579Z,11.13
2023-02-14T16:47:15.834Z,9.67
2023-02-14T16:49:43.846Z,11.37
2023-02-14T16:52:16.198Z,11.10
2023-02-14T16:54:44.424Z,10.33
2023-02-14T16:57:32.835Z,10.13
2023-02-14T17:00:00.866Z,9.93
2023-02-14T17:02:30.589Z,9.87
2023-02-14T17:04:58.563Z,11.07
2023-02-14T17:07:28.132Z,9.77
2023-02-14T17:10:03.498Z,9.43
2023-02-14T17:12:36.042Z,9.67
2023-02-14T17:15:11.028Z,11.17
2023-02-14T17:17:38.563Z,9.97
2023-02-14T17:20:08.493Z,9.53
2023-02-14T17:22:37.616Z,9.67
2023-02-14T17:25:06.648Z,9.77
2023-02-14T17:27:34.377Z,10.53
2023-02-14T17:30:02.376Z,10.43
2023-02-14T17:32:30.158Z,10.83
2023-02-14T17:34:58.140Z,10.33
2023-02-14T17:37:25.904Z,10.23
2023-02-14T17:39:55.951Z,11.13
2023-02-14T17:42:24.250Z,9.97
2023-02-14T17:44:52.097Z,10.70
2023-02-14T17:47:21.045Z,9.67
2023-02-14T17:49:50.660Z,10.00
2023-02-14T17:52:18.987Z,9.40
2023-02-14T17:54:46.984Z,9.83
2023-02-14T17:57:14.906Z,9.20
2023-02-14T17:59:43.162Z,9.83
2023-02-14T18:02:11.211Z,9.40
2023-02-14T18:04:39.217Z,10.33
2023-02-14T18:07:06.940Z,10.47
2023-02-14T18:09:35.122Z,10.27
2023-02-14T18:12:03.187Z,9.50
2023-02-14T18:14:32.235Z,9.63
2023-02-14T18:17:00.804Z,9.40
2023-02-14T18:19:29.243Z,9.90
2023-02-14T18:21:56.728Z,9.30
2023-02-14T18:24:24.777Z,9.90
2023-02-14T18:26:52.565Z,12.73
2023-02-14T18:29:21.260Z,11.83
2023-02-14T18:31:50.009Z,10.97
2023-02-14T18:34:18.500Z,9.50
2023-02-14T18:36:46.518Z,10.83
2023-02-14T18:39:14.444Z,12.60
2023-02-14T18:41:42.091Z,16.07
2023-02-14T18:44:10.148Z,14.00
2023-02-14T18:46:38.674Z,13.47
2023-02-14T18:49:08.648Z,15.77
2023-02-14T18:51:39.439Z,14.73
2023-02-14T18:54:08.018Z,15.60
2023-02-14T18:56:38.471Z,17.80
2023-02-14T18:59:10.038Z,19.47
2023-02-14T19:01:42.281Z,19.60
2023-02-14T19:04:12.471Z,18.33
2023-02-14T19:06:42.072Z,16.37
2023-02-14T19:09:14.299Z,17.90
2023-02-14T19:11:42.363Z,16.90
2023-02-14T19:14:11.190Z,18.60
2023-02-14T19:16:45.084Z,19.17
2023-02-14T19:19:13.775Z,18.93
2023-02-14T19:21:42.003Z,17.60
2023-02-14T19:24:10.502Z,16.93
2023-02-14T19:26:40.979Z,15.63
2023-02-14T19:29:15.314Z,15.27
2023-02-14T19:31:50.512Z,20.57
2023-02-14T19:34:30.742Z,18.97
2023-02-14T19:37:00.999Z,21.40
2023-02-14T19:39:30.764Z,16.30
2023-02-14T19:41:59.812Z,16.77
2023-02-14T19:44:29.750Z,15.40
2023-02-14T19:47:00.654Z,17.63
2023-02-14T19:49:30.677Z,16.63
2023-02-14T19:52:00.039Z,16.60
2023-02-14T19:54:30.165Z,16.13
2023-02-14T19:56:58.723Z,16.40
2023-02-14T19:59:28.243Z,17.10
2023-02-14T20:01:57.937Z,26.50
2023-02-14T20:04:29.885Z,36.90
2023-02-14T20:06:59.484Z,68.63
2023-02-14T20:09:28.521Z,67.07
2023-02-14T20:11:58.188Z,63.73
2023-02-14T20:14:49.856Z,56.77
2023-02-14T20:17:21.719Z,59.90
2023-02-14T20:19:53.523Z,45.90
2023-02-14T20:22:23.849Z,49.80
2023-02-14T20:24:56.028Z,33.50
2023-02-14T20:27:27.050Z,34.20
2023-02-14T20:29:56.827Z,35.50
2023-02-14T20:32:28.134Z,22.37
2023-02-14T20:34:59.898Z,20.57
2023-02-14T20:37:30.390Z,18.13
2023-02-14T20:40:04.893Z,18.87
2023-02-14T20:42:33.987Z,17.93
2023-02-14T20:45:02.410Z,19.93
2023-02-14T20:47:30.758Z,20.20
2023-02-14T20:49:59.583Z,21.30
2023-02-14T20:52:28.312Z,25.17
2023-02-14T20:54:57.855Z,26.13
2023-02-14T20:57:27.083Z,93.00
2023-02-14T20:59:56.634Z,51.43
2023-02-14T21:02:25.504Z,54.90
2023-02-14T21:04:54.844Z,60.57
2023-02-14T21:07:23.573Z,52.97
2023-02-14T21:09:52.501Z,53.63
2023-02-14T21:12:21.461Z,38.53
2023-02-14T21:14:50.844Z,39.73
2023-02-14T21:17:19.618Z,33.17
2023-02-14T21:19:50.283Z,43.17
2023-02-14T21:22:22.786Z,32.10
2023-02-14T21:24:55.379Z,44.57
2023-02-14T21:27:25.128Z,38.97
2023-02-14T21:29:57.836Z,57.50
2023-02-14T21:32:28.954Z,37.70
2023-02-14T21:34:57.657Z,37.83
2023-02-14T21:37:25.616Z,35.03
2023-02-14T21:39:54.057Z,38.57
2023-02-14T21:42:22.162Z,35.10
2023-02-14T21:45:08.676Z,37.73
2023-02-14T21:47:38.625Z,36.90
2023-02-14T21:50:26.584Z,40.23
2023-02-14T21:52:54.838Z,36.33
2023-02-14T21:55:24.382Z,41.07
2023-02-14T21:57:52.852Z,46.57
2023-02-14T22:00:23.141Z,47.87
2023-02-14T22:02:53.289Z,44.67
2023-02-14T22:05:23.084Z,41.83
2023-02-14T22:07:51.510Z,44.90
2023-02-14T22:10:20.028Z,47.20
2023-02-14T22:12:48.338Z,46.30
2023-02-14T22:15:17.484Z,46.43
2023-02-14T22:17:45.806Z,51.70
2023-02-14T22:20:14.350Z,48.43
2023-02-14T22:22:42.679Z,53.70
2023-02-14T22:25:11.092Z,53.47
2023-02-14T22:27:43.205Z,52.57
2023-02-14T22:30:11.544Z,52.30
2023-02-14T22:32:39.405Z,50.83
2023-02-14T22:35:08.036Z,59.63
2023-02-14T22:37:37.675Z,72.63
2023-02-14T22:40:08.602Z,65.70
2023-02-14T22:42:36.931Z,77.47
2023-02-14T22:45:05.634Z,76.37
2023-02-14T22:47:34.270Z,70.93
2023-02-14T22:50:02.805Z,74.63
2023-02-14T22:52:30.755Z,76.37
2023-02-14T22:54:58.755Z,62.37
2023-02-14T22:57:26.657Z,72.40
2023-02-14T22:59:54.961Z,78.80
2023-02-14T23:02:22.835Z,85.13
2023-02-14T23:04:51.277Z,100.83
2023-02-14T23:07:19.362Z,98.97
2023-02-14T23:09:47.537Z,106.53
2023-02-14T23:12:35.261Z,90.80
2023-02-14T23:15:22.209Z,98.17
2023-02-14T23:18:08.944Z,90.70
2023-02-14T23:20:55.647Z,100.90
2023-02-14T23:23:23.830Z,96.27
2023-02-14T23:25:52.204Z,84.83
2023-02-14T23:28:20.079Z,78.93
2023-02-14T23:30:48.226Z,65.17
2023-02-14T23:33:16.190Z,68.23
2023-02-14T23:35:44.620Z,66.23
2023-02-14T23:38:12.788Z,70.57
2023-02-14T23:40:59.175Z,66.60
2023-02-14T23:43:27.280Z,60.13
2023-02-14T23:45:56.657Z,67.60
2023-02-14T23:48:24.517Z,63.10
2023-02-14T23:50:53.082Z,67.53
2023-02-14T23:53:21.442Z,66.07
2023-02-14T23:55:49.858Z,62.30
2023-02-14T23:58:17.941Z,62.17
